createdAt,value
2023-02-11T00:01:25.288Z,36.17
2023-02-11T00:03:56.190Z,35.07
2023-02-11T00:06:24.899Z,27.87
2023-02-11T00:08:53.762Z,36.23
2023-02-11T00:11:25.511Z,33.57
2023-02-11T00:13:54.323Z,24.93
2023-02-11T00:16:22.943Z,33.47
2023-02-11T00:18:53.141Z,33.97
2023-02-11T00:21:24.924Z,28.50
2023-02-11T00:23:54.970Z,27.23
2023-02-11T00:26:25.206Z,26.57
2023-02-11T00:28:54.454Z,30.73
2023-02-11T00:31:24.383Z,34.73
2023-02-11T00:33:53.472Z,29.87
2023-02-11T00:36:26.048Z,33.83
2023-02-11T00:38:56.954Z,34.40
2023-02-11T00:41:26.088Z,29.50
2023-02-11T00:43:54.828Z,26.00
2023-02-11T00:46:23.508Z,27.87
2023-02-11T00:48:55.120Z,33.93
2023-02-11T00:51:24.977Z,30.67
2023-02-11T00:53:53.418Z,29.60
2023-02-11T00:56:21.935Z,37.03
2023-02-11T00:58:50.734Z,36.63
2023-02-11T01:01:19.017Z,32.77
2023-02-11T01:03:47.532Z,29.10
2023-02-11T01:06:15.896Z,32.00
2023-02-11T01:08:45.871Z,32.97
2023-02-11T01:11:16.649Z,26.83
2023-02-11T01:13:45.605Z,25.93
2023-02-11T01:16:14.680Z,28.87
2023-02-11T01:18:44.429Z,32.30
2023-02-11T01:21:12.999Z,31.00
2023-02-11T01:23:41.511Z,29.27
2023-02-11T01:26:11.167Z,32.07
2023-02-11T01:28:40.109Z,33.17
2023-02-11T01:31:08.505Z,25.60
2023-02-11T01:33:37.267Z,26.07
2023-02-11T01:36:07.579Z,31.70
2023-02-11T01:38:37.296Z,33.67
2023-02-11T01:41:07.985Z,27.03
2023-02-11T01:43:40.282Z,29.03
2023-02-11T01:46:24.508Z,24.50
2023-02-11T01:48:56.787Z,24.17
2023-02-11T01:51:30.592Z,33.27
2023-02-11T01:54:17.652Z,26.00
2023-02-11T01:57:08.416Z,30.80
2023-02-11T01:59:42.858Z,27.73
2023-02-11T02:02:14.819Z,31.63
2023-02-11T02:04:50.477Z,31.63
2023-02-11T02:07:26.286Z,27.27
2023-02-11T02:10:01.672Z,31.10
2023-02-11T02:12:30.257Z,23.10
2023-02-11T02:15:26.401Z,22.97
2023-02-11T02:18:08.757Z,31.53
2023-02-11T02:21:14.641Z,25.13
2023-02-11T02:24:13.856Z,27.63
2023-02-11T02:27:15.049Z,27.17
2023-02-11T02:30:21.216Z,29.40
2023-02-11T02:33:21.587Z,30.17
2023-02-11T02:35:59.499Z,24.07
2023-02-11T02:38:33.337Z,32.37
2023-02-11T02:41:05.561Z,35.50
2023-02-11T02:43:35.280Z,27.20
2023-02-11T02:46:18.445Z,42.57
2023-02-11T02:48:50.537Z,33.33
2023-02-11T02:51:36.424Z,35.67
2023-02-11T02:54:36.966Z,29.63
2023-02-11T02:57:22.071Z,29.17
2023-02-11T03:00:02.869Z,24.70
2023-02-11T03:02:36.034Z,29.77
2023-02-11T03:05:12.860Z,27.30
2023-02-11T03:07:45.950Z,27.70
2023-02-11T03:10:20.504Z,31.43
2023-02-11T03:12:50.705Z,31.20
2023-02-11T03:15:22.188Z,31.40
2023-02-11T03:17:54.216Z,33.17
2023-02-11T03:20:24.572Z,29.27
2023-02-11T03:22:57.047Z,30.83
2023-02-11T03:25:31.260Z,32.83
2023-02-11T03:28:06.802Z,32.33
2023-02-11T03:30:41.713Z,26.90
2023-02-11T03:33:15.410Z,26.53
2023-02-11T03:35:51.899Z,30.57
2023-02-11T03:38:23.633Z,26.70
2023-02-11T03:40:53.996Z,44.87
2023-02-11T03:43:27.290Z,25.73
2023-02-11T03:45:59.977Z,42.90
2023-02-11T03:48:32.610Z,35.97
2023-02-11T03:51:06.423Z,33.27
2023-02-11T03:53:35.111Z,28.83
2023-02-11T03:56:07.377Z,37.90
2023-02-11T03:58:35.732Z,43.93
2023-02-11T04:01:05.226Z,32.70
2023-02-11T04:03:33.486Z,35.13
2023-02-11T04:06:03.459Z,43.17
2023-02-11T04:08:32.053Z,49.63
2023-02-11T04:11:00.711Z,30.87
2023-02-11T04:13:28.994Z,35.90
2023-02-11T04:15:57.620Z,36.80
2023-02-11T04:18:25.975Z,39.83
2023-02-11T04:20:54.656Z,39.97
2023-02-11T04:23:24.349Z,35.27
2023-02-11T04:25:53.161Z,36.50
2023-02-11T04:28:22.068Z,35.73
2023-02-11T04:30:51.699Z,39.93
2023-02-11T04:33:20.026Z,35.33
2023-02-11T04:35:48.810Z,34.27
2023-02-11T04:38:17.716Z,49.47
2023-02-11T04:40:47.719Z,41.83
2023-02-11T04:43:15.989Z,38.60
2023-02-11T04:45:44.500Z,36.83
2023-02-11T04:48:12.759Z,38.67
2023-02-11T04:50:41.331Z,28.73
2023-02-11T04:53:09.515Z,42.83
2023-02-11T04:55:38.023Z,34.57
2023-02-11T04:58:07.594Z,33.43
2023-02-11T05:00:36.315Z,46.00
2023-02-11T05:03:04.813Z,40.27
2023-02-11T05:05:33.867Z,40.23
2023-02-11T05:08:02.091Z,41.10
2023-02-11T05:10:30.954Z,37.87
2023-02-11T05:12:59.237Z,39.07
2023-02-11T05:15:29.348Z,50.90
2023-02-11T05:17:57.528Z,36.67
2023-02-11T05:20:26.497Z,45.90
2023-02-11T05:22:54.771Z,43.60
2023-02-11T05:25:23.342Z,34.17
2023-02-11T05:27:51.617Z,41.77
2023-02-11T05:30:20.455Z,40.50
2023-02-11T05:32:49.961Z,33.93
2023-02-11T05:35:18.845Z,39.53
2023-02-11T05:37:47.132Z,42.20
2023-02-11T05:40:15.951Z,45.23
2023-02-11T05:42:44.144Z,36.90
2023-02-11T05:45:12.713Z,45.00
2023-02-11T05:47:40.940Z,46.57
2023-02-11T05:50:11.873Z,42.70
2023-02-11T05:52:40.309Z,40.03
2023-02-11T05:55:09.524Z,39.03
2023-02-11T05:57:37.686Z,38.80
2023-02-11T06:00:07.928Z,38.27
2023-02-11T06:02:36.278Z,43.00
2023-02-11T06:05:04.996Z,42.37
2023-02-11T06:07:34.752Z,49.57
2023-02-11T06:10:03.596Z,33.77
2023-02-11T06:12:31.947Z,42.07
2023-02-11T06:15:00.588Z,45.63
2023-02-11T06:17:31.712Z,37.50
2023-02-11T06:20:00.982Z,44.30
2023-02-11T06:22:29.143Z,42.03
2023-02-11T06:25:02.054Z,44.43
2023-02-11T06:27:31.027Z,36.30
2023-02-11T06:29:59.741Z,33.13
2023-02-11T06:32:44.046Z,38.20
2023-02-11T06:35:13.825Z,37.87
2023-02-11T06:37:42.669Z,40.93
2023-02-11T06:40:13.475Z,36.67
2023-02-11T06:42:42.642Z,43.20
2023-02-11T06:45:13.191Z,34.17
2023-02-11T06:47:42.445Z,38.70
2023-02-11T06:50:14.842Z,46.50
2023-02-11T06:52:43.188Z,44.93
2023-02-11T06:55:13.418Z,51.30
2023-02-11T06:57:41.806Z,53.47
2023-02-11T07:00:11.896Z,39.27
2023-02-11T07:02:40.418Z,38.07
2023-02-11T07:05:11.157Z,41.33
2023-02-11T07:07:39.630Z,47.67
2023-02-11T07:10:08.751Z,45.50
2023-02-11T07:12:38.402Z,39.80
2023-02-11T07:15:07.520Z,50.10
2023-02-11T07:17:36.181Z,49.93
2023-02-11T07:20:05.497Z,45.10
2023-02-11T07:22:35.327Z,48.50
2023-02-11T07:25:04.397Z,42.43
2023-02-11T07:27:32.696Z,47.97
2023-02-11T07:30:03.783Z,38.00
2023-02-11T07:32:33.126Z,54.17
2023-02-11T07:35:01.771Z,40.10
2023-02-11T07:37:30.090Z,34.10
2023-02-11T07:39:58.649Z,41.67
2023-02-11T07:42:27.005Z,55.37
2023-02-11T07:44:55.708Z,39.00
2023-02-11T07:47:25.556Z,33.70
2023-02-11T07:49:56.582Z,42.50
2023-02-11T07:52:25.050Z,47.67
2023-02-11T07:54:53.599Z,45.80
2023-02-11T07:57:22.055Z,48.70
2023-02-11T07:59:50.608Z,38.27
2023-02-11T08:02:18.886Z,46.90
2023-02-11T08:04:48.989Z,38.87
2023-02-11T08:07:17.649Z,35.43
2023-02-11T08:09:46.475Z,42.60
2023-02-11T08:12:14.841Z,39.30
2023-02-11T08:14:43.678Z,39.20
2023-02-11T08:17:12.112Z,42.87
2023-02-11T08:19:40.746Z,37.60
2023-02-11T08:22:10.743Z,35.87
2023-02-11T08:24:39.257Z,39.40
2023-02-11T08:27:07.652Z,44.27
2023-02-11T08:29:36.552Z,36.70
2023-02-11T08:32:05.697Z,37.47
2023-02-11T08:34:34.288Z,42.77
2023-02-11T08:37:02.633Z,41.40
2023-02-11T08:39:32.470Z,32.53
2023-02-11T08:42:00.866Z,36.03
2023-02-11T08:44:30.005Z,37.90
2023-02-11T08:46:58.323Z,40.93
2023-02-11T08:49:26.812Z,39.00
2023-02-11T08:51:56.255Z,40.87
2023-02-11T08:54:24.694Z,37.97
2023-02-11T08:56:54.618Z,26.73
2023-02-11T08:59:23.126Z,44.50
2023-02-11T09:01:51.677Z,41.40
2023-02-11T09:04:20.502Z,45.03
2023-02-11T09:06:49.512Z,41.57
2023-02-11T09:09:18.426Z,39.00
2023-02-11T09:11:47.734Z,39.33
2023-02-11T09:14:20.375Z,41.70
2023-02-11T09:16:49.708Z,40.70
2023-02-11T09:19:19.648Z,43.60
2023-02-11T09:21:48.288Z,46.60
2023-02-11T09:24:17.175Z,42.57
2023-02-11T09:26:45.685Z,47.97
2023-02-11T09:29:14.259Z,43.83
2023-02-11T09:31:44.090Z,41.23
2023-02-11T09:34:13.597Z,36.90
2023-02-11T09:36:42.324Z,47.67
2023-02-11T09:39:14.412Z,41.77
2023-02-11T09:42:11.802Z,44.63
2023-02-11T09:44:45.192Z,45.50
2023-02-11T09:47:25.121Z,43.97
2023-02-11T09:49:59.993Z,45.33
2023-02-11T09:52:37.080Z,37.60
2023-02-11T09:55:13.815Z,42.70
2023-02-11T09:57:42.082Z,51.83
2023-02-11T10:00:21.451Z,39.43
2023-02-11T10:03:12.933Z,38.03
2023-02-11T10:06:08.912Z,37.37
2023-02-11T10:08:45.308Z,48.27
2023-02-11T10:11:31.635Z,46.20
2023-02-11T10:14:12.152Z,32.43
2023-02-11T10:16:58.596Z,37.47
2023-02-11T10:19:46.595Z,31.77
2023-02-11T10:22:20.542Z,42.63
2023-02-11T10:24:53.426Z,36.83
2023-02-11T10:27:25.341Z,35.83
2023-02-11T10:29:58.295Z,43.33
2023-02-11T10:32:33.794Z,33.30
2023-02-11T10:35:16.322Z,42.53
2023-02-11T10:37:45.018Z,31.50
2023-02-11T10:40:15.813Z,41.03
2023-02-11T10:42:48.812Z,39.00
2023-02-11T10:45:23.023Z,39.47
2023-02-11T10:47:51.869Z,34.17
2023-02-11T10:50:25.237Z,32.10
2023-02-11T10:52:53.978Z,37.60
2023-02-11T10:55:27.835Z,36.87
2023-02-11T10:58:01.474Z,30.03
2023-02-11T11:00:38.846Z,36.60
2023-02-11T11:03:17.881Z,33.13
2023-02-11T11:05:50.621Z,30.23
2023-02-11T11:08:20.549Z,28.33
2023-02-11T11:11:03.783Z,29.63
2023-02-11T11:13:34.197Z,35.70
2023-02-11T11:16:23.672Z,30.70
2023-02-11T11:18:53.989Z,28.37
2023-02-11T11:21:26.035Z,31.70
2023-02-11T11:23:58.135Z,30.53
2023-02-11T11:26:28.370Z,29.13
2023-02-11T11:29:03.496Z,26.40
2023-02-11T11:31:35.178Z,26.30
2023-02-11T11:34:18.362Z,26.23
2023-02-11T11:36:48.022Z,27.33
2023-02-11T11:39:22.361Z,32.30
2023-02-11T11:41:53.229Z,21.47
2023-02-11T11:44:28.882Z,26.77
2023-02-11T11:47:26.341Z,28.90
2023-02-11T11:50:16.031Z,23.77
2023-02-11T11:52:52.088Z,28.53
2023-02-11T11:55:23.436Z,22.43
2023-02-11T11:57:52.425Z,21.10
2023-02-11T12:00:25.085Z,23.60
2023-02-11T12:03:29.448Z,28.47
2023-02-11T12:06:17.049Z,28.90
2023-02-11T12:08:58.421Z,25.53
2023-02-11T12:11:37.754Z,19.87
2023-02-11T12:14:18.470Z,28.00
2023-02-11T12:16:57.098Z,18.20
2023-02-11T12:20:01.537Z,20.37
2023-02-11T12:22:40.826Z,25.17
2023-02-11T12:25:27.932Z,26.53
2023-02-11T12:28:08.582Z,16.57
2023-02-11T12:30:55.043Z,20.47
2023-02-11T12:33:39.957Z,27.10
2023-02-11T12:36:16.156Z,26.30
2023-02-11T12:39:07.113Z,20.67
2023-02-11T12:42:15.273Z,21.30
2023-02-11T12:44:59.706Z,15.67
2023-02-11T12:47:35.760Z,21.87
2023-02-11T12:50:14.938Z,20.43
2023-02-11T12:52:59.494Z,18.37
2023-02-11T12:55:32.118Z,16.80
2023-02-11T12:58:03.165Z,22.13
2023-02-11T13:00:43.572Z,15.87
2023-02-11T13:03:16.927Z,19.53
2023-02-11T13:05:49.607Z,17.97
2023-02-11T13:08:22.070Z,13.83
2023-02-11T13:10:55.066Z,16.63
2023-02-11T13:13:28.894Z,17.03
2023-02-11T13:16:04.473Z,17.10
2023-02-11T13:18:49.334Z,13.73
2023-02-11T13:21:37.673Z,13.47
2023-02-11T13:24:20.973Z,14.70
2023-02-11T13:26:59.154Z,15.43
2023-02-11T13:29:37.337Z,13.97
2023-02-11T13:32:10.929Z,15.63
2023-02-11T13:34:59.123Z,17.43
2023-02-11T13:37:31.666Z,18.53
2023-02-11T13:40:02.091Z,22.73
2023-02-11T13:42:32.241Z,16.73
2023-02-11T13:45:02.299Z,17.17
2023-02-11T13:47:34.519Z,14.80
2023-02-11T13:50:06.783Z,16.37
2023-02-11T13:52:38.064Z,13.47
2023-02-11T13:55:21.592Z,12.57
2023-02-11T13:58:23.565Z,14.53
2023-02-11T14:00:53.766Z,18.83
2023-02-11T14:03:57.485Z,17.87
2023-02-11T14:06:45.912Z,15.50
2023-02-11T14:09:40.259Z,19.63
2023-02-11T14:12:38.586Z,12.67
2023-02-11T14:15:39.441Z,11.03
2023-02-11T14:18:40.052Z,12.60
2023-02-11T14:21:14.384Z,11.73
2023-02-11T14:23:43.283Z,12.80
2023-02-11T14:26:36.244Z,15.27
2023-02-11T14:29:10.749Z,13.27
2023-02-11T14:31:43.724Z,11.60
2023-02-11T14:34:43.718Z,15.73
2023-02-11T14:37:28.545Z,10.83
2023-02-11T14:40:05.669Z,21.47
2023-02-11T14:42:35.991Z,31.53
2023-02-11T14:45:07.832Z,24.90
2023-02-11T14:47:43.405Z,23.73
2023-02-11T14:50:20.320Z,26.05
2023-02-11T14:52:51.134Z,27.43
2023-02-11T14:55:30.595Z,25.77
2023-02-11T14:58:13.824Z,30.17
2023-02-11T15:00:50.719Z,27.83
2023-02-11T15:03:36.803Z,29.00
2023-02-11T15:06:14.074Z,24.00
2023-02-11T15:08:46.728Z,23.83
2023-02-11T15:11:18.710Z,25.93
2023-02-11T15:13:49.836Z,18.60
2023-02-11T15:16:22.171Z,28.53
2023-02-11T15:18:54.318Z,26.97
2023-02-11T15:21:26.735Z,30.17
2023-02-11T15:24:00.649Z,23.70
2023-02-11T15:26:29.947Z,34.03
2023-02-11T15:28:58.564Z,23.03
2023-02-11T15:31:28.701Z,31.57
2023-02-11T15:34:07.789Z,17.50
2023-02-11T15:36:38.855Z,20.20
2023-02-11T15:39:29.023Z,15.37
2023-02-11T15:41:57.631Z,18.30
2023-02-11T15:44:31.434Z,20.77
2023-02-11T15:47:00.525Z,20.40
2023-02-11T15:49:29.169Z,20.87
2023-02-11T15:51:59.390Z,18.23
2023-02-11T15:54:32.094Z,19.80
2023-02-11T15:57:08.211Z,19.80
2023-02-11T15:59:40.371Z,15.83
2023-02-11T16:02:16.914Z,19.70
2023-02-11T16:04:52.355Z,21.50
2023-02-11T16:07:42.345Z,21.40
2023-02-11T16:10:30.491Z,18.97
2023-02-11T16:13:19.437Z,17.43
2023-02-11T16:15:52.416Z,21.33
2023-02-11T16:18:40.011Z,23.73
2023-02-11T16:21:16.773Z,20.93
2023-02-11T16:23:52.199Z,15.70
2023-02-11T16:26:28.330Z,22.97
2023-02-11T16:29:05.490Z,17.30
2023-02-11T16:31:35.632Z,17.67
2023-02-11T16:34:03.868Z,19.33
2023-02-11T16:36:32.594Z,18.80
2023-02-11T16:39:02.330Z,20.33
2023-02-11T16:41:31.053Z,18.40
2023-02-11T16:43:59.386Z,29.87
2023-02-11T16:46:28.045Z,19.93
2023-02-11T16:48:57.733Z,21.97
2023-02-11T16:51:26.778Z,25.23
2023-02-11T16:53:55.100Z,22.70
2023-02-11T16:56:24.860Z,25.83
2023-02-11T16:58:53.098Z,19.20
2023-02-11T17:01:21.725Z,25.50
2023-02-11T17:03:50.361Z,18.50
2023-02-11T17:06:18.881Z,24.10
2023-02-11T17:08:47.073Z,21.83
2023-02-11T17:11:17.386Z,17.37
2023-02-11T17:13:47.015Z,22.47
2023-02-11T17:16:19.271Z,21.90
2023-02-11T17:18:48.278Z,19.87
2023-02-11T17:21:17.134Z,18.83
2023-02-11T17:23:46.042Z,21.03
2023-02-11T17:26:14.600Z,14.80
2023-02-11T17:28:43.390Z,22.03
2023-02-11T17:31:13.339Z,11.47
2023-02-11T17:33:41.687Z,14.67
2023-02-11T17:36:11.684Z,23.37
2023-02-11T17:38:40.090Z,19.57
2023-02-11T17:41:10.117Z,15.80
2023-02-11T17:43:38.261Z,16.00
2023-02-11T17:46:08.443Z,12.00
2023-02-11T17:48:39.933Z,15.53
2023-02-11T17:51:23.970Z,15.63
2023-02-11T17:53:52.576Z,13.63
2023-02-11T17:56:21.552Z,13.37
2023-02-11T17:58:49.736Z,13.67
2023-02-11T18:01:18.430Z,12.33
2023-02-11T18:03:48.088Z,20.67
2023-02-11T18:06:16.702Z,17.07
2023-02-11T18:08:45.155Z,12.20
2023-02-11T18:11:15.095Z,23.47
2023-02-11T18:13:43.768Z,15.17
2023-02-11T18:16:15.661Z,17.97
2023-02-11T18:18:44.222Z,18.33
2023-02-11T18:21:16.043Z,16.43
2023-02-11T18:23:44.559Z,14.90
2023-02-11T18:26:14.743Z,19.13
2023-02-11T18:28:45.720Z,18.30
2023-02-11T18:31:15.120Z,19.80
2023-02-11T18:33:44.417Z,23.60
2023-02-11T18:36:16.414Z,24.40
2023-02-11T18:38:45.187Z,17.60
2023-02-11T18:41:14.237Z,15.73
2023-02-11T18:43:43.072Z,15.33
2023-02-11T18:46:13.919Z,21.00
2023-02-11T18:48:44.741Z,16.97
2023-02-11T18:51:18.354Z,18.10
2023-02-11T18:53:47.110Z,25.80
2023-02-11T18:56:17.615Z,21.20
2023-02-11T18:58:46.220Z,20.03
2023-02-11T19:01:16.693Z,25.60
2023-02-11T19:03:45.396Z,19.50
2023-02-11T19:06:20.409Z,24.70
2023-02-11T19:08:48.705Z,30.57
2023-02-11T19:11:18.754Z,24.03
2023-02-11T19:13:48.004Z,18.50
2023-02-11T19:16:19.685Z,22.13
2023-02-11T19:18:47.988Z,25.23
2023-02-11T19:21:17.826Z,24.10
2023-02-11T19:23:46.074Z,15.83
2023-02-11T19:26:14.883Z,21.00
2023-02-11T19:28:44.703Z,29.10
2023-02-11T19:31:13.642Z,15.70
2023-02-11T19:33:42.290Z,19.13
2023-02-11T19:36:11.968Z,28.10
2023-02-11T19:38:41.544Z,35.67
2023-02-11T19:41:10.327Z,26.13
2023-02-11T19:43:41.496Z,31.03
2023-02-11T19:46:10.157Z,33.87
2023-02-11T19:48:38.723Z,28.03
2023-02-11T19:51:13.359Z,23.70
2023-02-11T19:53:43.360Z,33.13
2023-02-11T19:56:12.840Z,23.73
2023-02-11T19:58:41.666Z,25.10
2023-02-11T20:01:12.315Z,30.20
2023-02-11T20:03:42.558Z,25.37
2023-02-11T20:06:14.060Z,26.90
2023-02-11T20:08:44.140Z,26.97
2023-02-11T20:11:15.312Z,24.80
2023-02-11T20:13:44.632Z,25.17
2023-02-11T20:16:16.636Z,30.93
2023-02-11T20:18:45.748Z,20.97
2023-02-11T20:21:16.376Z,31.00
2023-02-11T20:23:46.702Z,33.70
2023-02-11T20:26:18.147Z,24.23
2023-02-11T20:28:47.133Z,25.07
2023-02-11T20:31:16.179Z,23.13
2023-02-11T20:33:45.529Z,22.30
2023-02-11T20:36:17.605Z,20.73
2023-02-11T20:38:47.974Z,35.90
2023-02-11T20:41:18.320Z,22.43
2023-02-11T20:43:48.930Z,27.00
2023-02-11T20:46:19.454Z,24.43
2023-02-11T20:48:48.281Z,24.27
2023-02-11T20:51:19.141Z,26.67
2023-02-11T20:53:51.629Z,22.33
2023-02-11T20:56:22.468Z,31.10
2023-02-11T20:58:51.991Z,28.00
2023-02-11T21:01:23.122Z,28.03
2023-02-11T21:03:53.910Z,25.77
2023-02-11T21:06:23.762Z,23.47
2023-02-11T21:08:53.795Z,25.77
2023-02-11T21:11:22.353Z,25.67
2023-02-11T21:13:51.112Z,26.10
2023-02-11T21:16:21.589Z,22.97
2023-02-11T21:18:52.331Z,29.53
2023-02-11T21:21:21.555Z,23.73
2023-02-11T21:23:50.213Z,18.20
2023-02-11T21:26:20.379Z,30.90
2023-02-11T21:28:49.516Z,13.77
2023-02-11T21:31:21.706Z,18.63
2023-02-11T21:33:50.307Z,24.97
2023-02-11T21:36:18.925Z,19.67
2023-02-11T21:38:47.490Z,15.77
2023-02-11T21:41:15.926Z,16.47
2023-02-11T21:43:45.813Z,14.27
2023-02-11T21:46:16.596Z,15.13
2023-02-11T21:48:44.938Z,18.10
2023-02-11T21:51:18.022Z,13.83
2023-02-11T21:53:46.795Z,14.80
2023-02-11T21:56:17.491Z,19.27
2023-02-11T21:58:47.857Z,10.43
2023-02-11T22:01:19.143Z,19.73
2023-02-11T22:03:48.228Z,17.77
2023-02-11T22:06:21.279Z,20.13
2023-02-11T22:08:50.424Z,11.20
2023-02-11T22:11:19.376Z,17.13
2023-02-11T22:13:49.065Z,15.60
2023-02-11T22:16:18.656Z,12.30
2023-02-11T22:18:46.976Z,14.80
2023-02-11T22:21:17.252Z,12.30
2023-02-11T22:23:45.967Z,18.10
2023-02-11T22:26:16.807Z,13.90
2023-02-11T22:28:45.331Z,6.57
2023-02-11T22:31:17.810Z,16.47
2023-02-11T22:33:46.626Z,15.13
2023-02-11T22:36:18.382Z,7.93
2023-02-11T22:38:47.564Z,9.53
2023-02-11T22:41:16.894Z,10.43
2023-02-11T22:43:45.639Z,12.93
2023-02-11T22:46:18.544Z,11.83
2023-02-11T22:48:47.452Z,13.00
2023-02-11T22:51:18.064Z,16.13
2023-02-11T22:53:50.434Z,9.33
2023-02-11T22:56:19.227Z,9.87
2023-02-11T22:58:47.731Z,13.00
2023-02-11T23:01:18.199Z,12.00
2023-02-11T23:03:47.251Z,11.73
2023-02-11T23:06:16.305Z,13.33
2023-02-11T23:08:45.131Z,13.50
2023-02-11T23:11:16.701Z,24.03
2023-02-11T23:13:46.357Z,15.63
2023-02-11T23:16:18.210Z,11.60
2023-02-11T23:18:47.564Z,10.43
2023-02-11T23:21:18.137Z,10.77
2023-02-11T23:23:46.905Z,8.67
2023-02-11T23:26:18.419Z,9.93
2023-02-11T23:28:47.575Z,13.63
2023-02-11T23:31:20.089Z,12.93
2023-02-11T23:33:49.859Z,13.23
2023-02-11T23:36:19.834Z,9.93
2023-02-11T23:38:48.925Z,13.83
2023-02-11T23:41:18.386Z,9.00
2023-02-11T23:43:50.866Z,11.03
2023-02-11T23:46:22.013Z,12.60
2023-02-11T23:48:51.012Z,7.07
2023-02-11T23:51:20.118Z,10.03
2023-02-11T23:53:49.426Z,14.63
2023-02-11T23:56:20.538Z,14.47
2023-02-11T23:58:50.339Z,11.67
